createdAt,value
2023-03-07T00:01:27.584Z,-1.76
2023-03-07T00:04:12.833Z,-1.65
2023-03-07T00:06:58.332Z,-1.99
2023-03-07T00:09:43.992Z,-2.20
2023-03-07T00:12:29.123Z,-1.62
2023-03-07T00:15:14.600Z,-1.66
2023-03-07T00:18:00.244Z,-1.85
2023-03-07T00:20:45.713Z,-2.24
2023-03-07T00:23:31.488Z,-1.81
2023-03-07T00:26:19.483Z,-1.93
2023-03-07T00:29:09.596Z,-2.00
2023-03-07T00:31:54.811Z,-1.86
2023-03-07T00:34:40.341Z,-1.89
2023-03-07T00:37:25.639Z,-2.20
2023-03-07T00:40:11.624Z,-2.06
2023-03-07T00:42:57.282Z,-2.20
2023-03-07T00:45:42.823Z,-2.41
2023-03-07T00:48:29.195Z,-2.32
2023-03-07T00:51:17.863Z,-2.20
2023-03-07T00:54:03.656Z,-2.27
2023-03-07T00:56:49.558Z,-2.23
2023-03-07T00:59:34.685Z,-2.20
2023-03-07T01:02:20.249Z,-2.24
2023-03-07T01:05:06.102Z,-2.30
2023-03-07T01:07:51.590Z,-2.15
2023-03-07T01:10:37.186Z,-2.29
2023-03-07T01:13:22.580Z,-2.25
2023-03-07T01:16:09.499Z,-2.21
2023-03-07T01:18:57.339Z,-2.23
2023-03-07T01:21:43.910Z,-1.92
2023-03-07T01:24:29.402Z,-1.75
2023-03-07T01:27:15.203Z,-1.71
2023-03-07T01:30:00.627Z,-2.52
2023-03-07T01:32:45.954Z,-1.92
2023-03-07T01:35:37.562Z,-1.86
2023-03-07T01:38:22.713Z,-1.87
2023-03-07T01:41:09.952Z,-1.92
2023-03-07T01:43:55.745Z,-1.51
2023-03-07T01:47:02.900Z,-1.75
2023-03-07T01:49:55.495Z,-1.92
2023-03-07T01:52:56.892Z,-2.20
2023-03-07T01:55:42.915Z,-2.09
2023-03-07T01:58:34.707Z,-2.09
2023-03-07T02:01:20.003Z,-2.26
2023-03-07T02:04:17.580Z,-2.18
2023-03-07T02:07:03.402Z,-2.25
2023-03-07T02:09:51.204Z,-2.15
2023-03-07T02:12:37.368Z,-2.28
2023-03-07T02:15:23.379Z,-2.54
2023-03-07T02:18:12.989Z,-1.94
2023-03-07T02:21:23.232Z,-2.26
2023-03-07T02:24:25.381Z,-2.31
2023-03-07T02:27:11.115Z,-2.25
2023-03-07T02:29:57.735Z,-2.17
2023-03-07T02:32:43.288Z,-2.22
2023-03-07T02:35:28.798Z,-2.21
2023-03-07T02:38:18.527Z,-1.96
2023-03-07T02:41:04.991Z,-2.03
2023-03-07T02:43:52.588Z,-2.00
2023-03-07T02:46:38.244Z,-1.97
2023-03-07T02:49:23.952Z,-1.77
2023-03-07T02:52:09.203Z,-1.72
2023-03-07T02:54:55.410Z,-1.88
2023-03-07T02:57:42.735Z,-1.80
2023-03-07T03:00:28.315Z,-2.02
2023-03-07T03:03:13.788Z,-2.31
2023-03-07T03:05:59.069Z,-1.83
2023-03-07T03:08:44.444Z,-1.69
2023-03-07T03:11:30.011Z,-1.71
2023-03-07T03:14:15.663Z,-1.67
2023-03-07T03:17:01.060Z,-2.22
2023-03-07T03:19:46.576Z,-2.10
2023-03-07T03:22:31.909Z,-2.04
2023-03-07T03:25:17.392Z,-2.15
2023-03-07T03:28:03.688Z,-2.17
2023-03-07T03:31:01.562Z,-2.24
2023-03-07T03:33:48.144Z,-2.30
2023-03-07T03:36:33.531Z,-2.05
2023-03-07T03:39:23.000Z,-2.37
2023-03-07T03:42:12.843Z,-2.07
2023-03-07T03:44:58.260Z,-1.94
2023-03-07T03:47:43.891Z,-2.18
2023-03-07T03:50:29.439Z,-2.05
2023-03-07T03:53:15.115Z,-2.13
2023-03-07T03:56:15.153Z,-2.26
2023-03-07T03:59:00.688Z,-2.75
2023-03-07T04:01:45.969Z,-2.24
2023-03-07T04:04:31.556Z,-2.07
2023-03-07T04:07:16.832Z,-2.07
2023-03-07T04:10:02.297Z,-2.18
2023-03-07T04:12:48.383Z,-2.11
2023-03-07T04:15:34.010Z,-2.15
2023-03-07T04:18:21.591Z,-2.34
2023-03-07T04:21:07.651Z,-2.13
2023-03-07T04:23:53.071Z,-2.36
2023-03-07T04:26:39.056Z,-2.32
2023-03-07T04:29:24.387Z,-2.39
2023-03-07T04:32:14.309Z,-2.08
2023-03-07T04:34:59.751Z,-2.10
2023-03-07T04:37:45.376Z,-2.14
2023-03-07T04:40:31.392Z,-2.10
2023-03-07T04:43:16.702Z,-2.24
2023-03-07T04:46:02.475Z,-2.13
2023-03-07T04:48:47.916Z,-2.07
2023-03-07T04:51:33.436Z,-2.00
2023-03-07T04:54:18.845Z,-2.09
2023-03-07T04:57:06.367Z,-2.00
2023-03-07T04:59:53.634Z,-2.25
2023-03-07T05:02:40.555Z,-1.99
2023-03-07T05:05:26.517Z,-1.84
2023-03-07T05:08:11.931Z,-2.01
2023-03-07T05:10:57.597Z,-1.87
2023-03-07T05:13:43.758Z,-1.90
2023-03-07T05:16:29.714Z,-2.02
2023-03-07T05:19:15.046Z,-2.16
2023-03-07T05:22:00.564Z,-1.87
2023-03-07T05:24:45.917Z,-1.70
2023-03-07T05:27:31.071Z,-1.61
2023-03-07T05:30:16.733Z,-1.61
2023-03-07T05:33:02.119Z,-1.79
2023-03-07T05:35:47.825Z,-2.26
2023-03-07T05:38:34.855Z,-1.72
2023-03-07T05:41:20.399Z,-1.99
2023-03-07T05:44:05.918Z,-1.89
2023-03-07T05:46:51.260Z,-1.92
2023-03-07T05:49:36.470Z,-1.67
2023-03-07T05:52:22.471Z,-1.63
2023-03-07T05:55:08.616Z,-1.83
2023-03-07T05:57:53.757Z,-2.30
2023-03-07T06:00:39.573Z,-2.04
2023-03-07T06:03:25.038Z,-1.48
2023-03-07T06:06:11.531Z,-1.97
2023-03-07T06:08:56.972Z,-1.46
2023-03-07T06:11:42.559Z,-1.58
2023-03-07T06:14:31.034Z,-1.87
2023-03-07T06:17:16.260Z,-1.79
2023-03-07T06:20:01.767Z,-1.85
2023-03-07T06:22:48.190Z,-2.34
2023-03-07T06:25:34.252Z,-1.85
2023-03-07T06:28:23.592Z,-1.83
2023-03-07T06:31:15.648Z,-1.71
2023-03-07T06:34:02.019Z,-1.69
2023-03-07T06:36:47.455Z,-1.52
2023-03-07T06:39:32.964Z,-1.63
2023-03-07T06:42:20.612Z,-1.61
2023-03-07T06:45:06.650Z,-1.81
2023-03-07T06:47:52.338Z,-1.65
2023-03-07T06:50:38.604Z,-1.96
2023-03-07T06:53:23.864Z,-1.60
2023-03-07T06:56:09.382Z,-1.54
2023-03-07T06:58:56.035Z,-1.38
2023-03-07T07:01:43.146Z,-1.41
2023-03-07T07:04:29.138Z,-1.64
2023-03-07T07:07:15.196Z,-1.62
2023-03-07T07:10:00.885Z,-1.56
2023-03-07T07:12:47.710Z,-1.58
2023-03-07T07:15:33.762Z,-1.64
2023-03-07T07:18:19.541Z,-1.86
2023-03-07T07:21:05.622Z,-1.41
2023-03-07T07:23:51.777Z,-1.40
2023-03-07T07:26:37.488Z,-1.68
2023-03-07T07:29:23.815Z,-2.41
2023-03-07T07:32:10.162Z,-1.42
2023-03-07T07:34:55.551Z,-1.40
2023-03-07T07:37:41.274Z,-1.48
2023-03-07T07:40:27.197Z,-1.37
2023-03-07T07:43:15.709Z,-1.45
2023-03-07T07:46:16.774Z,-1.24
2023-03-07T07:49:02.974Z,-1.25
2023-03-07T07:51:48.762Z,-1.29
2023-03-07T07:54:34.152Z,-1.18
2023-03-07T07:57:22.436Z,-1.07
2023-03-07T08:00:09.945Z,-0.86
2023-03-07T08:02:58.947Z,-0.77
2023-03-07T08:05:48.606Z,-0.67
2023-03-07T08:08:34.053Z,-0.81
2023-03-07T08:11:20.492Z,-0.75
2023-03-07T08:14:05.634Z,-0.82
2023-03-07T08:16:51.055Z,-0.76
2023-03-07T08:19:36.575Z,-0.72
2023-03-07T08:22:21.927Z,-0.60
2023-03-07T08:25:08.223Z,-0.84
2023-03-07T08:27:54.449Z,-0.65
2023-03-07T08:30:39.683Z,-0.59
2023-03-07T08:33:25.028Z,-0.50
2023-03-07T08:36:10.526Z,-0.55
2023-03-07T08:38:56.016Z,-0.57
2023-03-07T08:41:41.243Z,-0.38
2023-03-07T08:44:26.719Z,-0.24
2023-03-07T08:47:12.379Z,-0.38
2023-03-07T08:49:57.932Z,-0.52
2023-03-07T08:52:43.472Z,-0.40
2023-03-07T08:55:28.730Z,-0.54
2023-03-07T08:58:14.815Z,-0.46
2023-03-07T09:01:00.723Z,-0.52
2023-03-07T09:03:46.508Z,-0.45
2023-03-07T09:06:31.708Z,-0.35
2023-03-07T09:09:17.355Z,-0.42
2023-03-07T09:12:02.821Z,-0.29
2023-03-07T09:14:48.513Z,-0.26
2023-03-07T09:17:33.623Z,-0.16
2023-03-07T09:20:19.000Z,-0.10
2023-03-07T09:23:07.888Z,-0.10
2023-03-07T09:25:53.200Z,-0.11
2023-03-07T09:28:38.505Z,-0.26
2023-03-07T09:31:23.856Z,-0.34
2023-03-07T09:34:09.044Z,-0.01
2023-03-07T09:36:54.305Z,-0.02
2023-03-07T09:39:39.904Z,-0.07
2023-03-07T09:42:37.976Z,-0.54
2023-03-07T09:45:38.537Z,0.01
2023-03-07T09:49:07.043Z,0.11
2023-03-07T09:51:57.318Z,0.21
2023-03-07T09:55:04.350Z,0.01
2023-03-07T09:57:56.263Z,-0.02
2023-03-07T10:00:42.693Z,0.01
2023-03-07T10:03:56.439Z,-0.43
2023-03-07T10:06:43.483Z,0.28
2023-03-07T10:09:28.672Z,0.33
2023-03-07T10:12:31.099Z,0.16
2023-03-07T10:15:53.490Z,0.23
2023-03-07T10:18:48.333Z,0.13
2023-03-07T10:21:46.781Z,0.38
2023-03-07T10:24:51.043Z,0.37
2023-03-07T10:27:36.959Z,0.42
2023-03-07T10:30:22.303Z,0.39
2023-03-07T10:33:18.041Z,0.38
2023-03-07T10:36:08.702Z,0.62
2023-03-07T10:39:06.896Z,-0.01
2023-03-07T10:41:52.676Z,0.72
2023-03-07T10:44:38.070Z,0.63
2023-03-07T10:47:26.717Z,0.65
2023-03-07T10:50:34.955Z,1.03
2023-03-07T10:53:30.389Z,1.00
2023-03-07T10:56:18.502Z,0.86
2023-03-07T10:59:08.771Z,0.94
2023-03-07T11:01:58.039Z,0.86
2023-03-07T11:04:46.521Z,1.23
2023-03-07T11:07:34.046Z,1.24
2023-03-07T11:10:36.212Z,1.26
2023-03-07T11:13:23.154Z,1.03
2023-03-07T11:16:20.219Z,0.77
2023-03-07T11:19:26.272Z,0.92
2023-03-07T11:22:33.842Z,1.06
2023-03-07T11:25:24.416Z,0.81
2023-03-07T11:28:35.463Z,0.78
2023-03-07T11:31:29.058Z,1.03
2023-03-07T11:34:32.436Z,0.87
2023-03-07T11:37:29.270Z,0.96
2023-03-07T11:40:51.388Z,1.07
2023-03-07T11:43:57.929Z,0.94
2023-03-07T11:46:55.170Z,0.80
2023-03-07T11:49:58.780Z,1.09
2023-03-07T11:52:53.012Z,1.17
2023-03-07T11:55:48.968Z,0.94
2023-03-07T11:58:40.060Z,1.21
2023-03-07T12:01:38.811Z,1.46
2023-03-07T12:04:51.136Z,1.45
2023-03-07T12:07:57.554Z,1.38
2023-03-07T12:11:12.198Z,1.41
2023-03-07T12:14:00.438Z,1.54
2023-03-07T12:16:56.545Z,1.32
2023-03-07T12:20:14.301Z,1.44
2023-03-07T12:23:37.614Z,1.14
2023-03-07T12:26:36.426Z,1.53
2023-03-07T12:29:28.132Z,1.45
2023-03-07T12:32:19.166Z,1.56
2023-03-07T12:35:22.690Z,1.57
2023-03-07T12:38:29.242Z,1.59
2023-03-07T12:41:20.953Z,1.54
2023-03-07T12:44:13.979Z,1.70
2023-03-07T12:47:13.355Z,1.72
2023-03-07T12:50:10.709Z,1.51
2023-03-07T12:53:02.300Z,1.50
2023-03-07T12:56:22.442Z,1.40
2023-03-07T12:59:16.216Z,1.33
2023-03-07T13:02:04.981Z,1.25
2023-03-07T13:04:50.119Z,1.11
2023-03-07T13:07:35.894Z,1.16
2023-03-07T13:10:24.007Z,0.96
2023-03-07T13:13:43.354Z,1.51
2023-03-07T13:16:46.315Z,1.37
2023-03-07T13:19:34.710Z,1.34
2023-03-07T13:22:20.172Z,1.22
2023-03-07T13:25:20.519Z,1.36
2023-03-07T13:28:35.133Z,1.36
2023-03-07T13:31:20.226Z,1.49
2023-03-07T13:34:45.127Z,1.47
2023-03-07T13:37:53.909Z,1.34
2023-03-07T13:40:45.269Z,0.99
2023-03-07T13:43:30.688Z,1.03
2023-03-07T13:46:25.006Z,1.01
2023-03-07T13:49:10.568Z,0.97
2023-03-07T13:52:44.016Z,1.09
2023-03-07T13:55:37.903Z,1.09
2023-03-07T13:58:40.131Z,1.04
2023-03-07T14:01:40.357Z,0.94
2023-03-07T14:04:39.991Z,0.87
2023-03-07T14:07:30.004Z,1.05
2023-03-07T14:10:31.462Z,0.71
2023-03-07T14:13:33.000Z,0.90
2023-03-07T14:16:50.738Z,0.71
2023-03-07T14:19:46.630Z,0.74
2023-03-07T14:22:32.199Z,0.75
2023-03-07T14:25:46.117Z,0.16
2023-03-07T14:28:38.945Z,0.73
2023-03-07T14:31:36.547Z,0.87
2023-03-07T14:34:30.637Z,0.75
2023-03-07T14:37:21.117Z,0.19
2023-03-07T14:40:09.283Z,0.70
2023-03-07T14:43:17.937Z,0.81
2023-03-07T14:46:03.256Z,0.65
2023-03-07T14:49:06.947Z,0.60
2023-03-07T14:51:52.698Z,0.48
2023-03-07T14:54:38.604Z,0.47
2023-03-07T14:57:33.668Z,0.32
2023-03-07T15:00:21.803Z,0.36
2023-03-07T15:03:12.376Z,0.53
2023-03-07T15:06:02.471Z,0.63
2023-03-07T15:08:48.324Z,0.80
2023-03-07T15:11:41.559Z,0.77
2023-03-07T15:14:40.298Z,0.52
2023-03-07T15:17:38.929Z,0.36
2023-03-07T15:20:27.110Z,0.84
2023-03-07T15:23:20.982Z,0.55
2023-03-07T15:26:08.139Z,0.37
2023-03-07T15:29:08.782Z,0.33
2023-03-07T15:32:00.418Z,0.85
2023-03-07T15:34:58.618Z,1.08
2023-03-07T15:38:00.068Z,0.69
2023-03-07T15:40:45.909Z,0.52
2023-03-07T15:43:35.194Z,0.87
2023-03-07T15:46:20.498Z,0.98
2023-03-07T15:49:06.757Z,0.84
2023-03-07T15:51:54.554Z,0.08
2023-03-07T15:54:42.092Z,-1.25
2023-03-07T15:57:50.545Z,-1.76
2023-03-07T16:00:39.250Z,-1.87
2023-03-07T16:03:24.406Z,-1.84
2023-03-07T16:06:42.738Z,-2.20
2023-03-07T16:09:27.906Z,-2.17
2023-03-07T16:12:15.777Z,-2.19
2023-03-07T16:15:02.828Z,-2.08
2023-03-07T16:17:49.622Z,-1.98
2023-03-07T16:20:34.838Z,-1.81
2023-03-07T16:23:20.326Z,-1.88
2023-03-07T16:26:06.241Z,-1.98
2023-03-07T16:28:52.834Z,-1.72
2023-03-07T16:31:38.417Z,-1.64
2023-03-07T16:34:23.898Z,-1.35
2023-03-07T16:37:09.548Z,-1.35
2023-03-07T16:39:54.692Z,-1.55
2023-03-07T16:42:43.999Z,-1.46
2023-03-07T16:45:31.415Z,-0.93
2023-03-07T16:48:17.387Z,-1.16
2023-03-07T16:51:04.539Z,-2.09
2023-03-07T16:53:50.461Z,-1.82
2023-03-07T16:56:45.802Z,-1.75
2023-03-07T16:59:36.883Z,-1.83
2023-03-07T17:02:24.386Z,-1.42
2023-03-07T17:05:24.237Z,-1.38
2023-03-07T17:08:10.102Z,-0.88
2023-03-07T17:10:55.802Z,-0.86
2023-03-07T17:13:41.372Z,-1.83
2023-03-07T17:16:27.279Z,-1.75
2023-03-07T17:19:30.118Z,-1.86
2023-03-07T17:22:15.508Z,-1.83
2023-03-07T17:25:01.372Z,-1.96
2023-03-07T17:28:00.666Z,-1.92
2023-03-07T17:30:46.282Z,-1.64
2023-03-07T17:33:32.739Z,-1.85
2023-03-07T17:36:18.479Z,-1.90
2023-03-07T17:39:04.048Z,-1.47
2023-03-07T17:41:50.634Z,-1.67
2023-03-07T17:44:35.799Z,-1.46
2023-03-07T17:47:21.423Z,-1.42
2023-03-07T17:50:08.502Z,-1.47
2023-03-07T17:52:55.546Z,-1.39
2023-03-07T17:55:41.021Z,-1.39
2023-03-07T17:58:26.609Z,-1.07
2023-03-07T18:01:11.804Z,-0.75
2023-03-07T18:03:58.287Z,-0.63
2023-03-07T18:06:43.686Z,-0.73
2023-03-07T18:09:29.096Z,-0.70
2023-03-07T18:12:14.366Z,-0.56
2023-03-07T18:14:59.857Z,-0.45
2023-03-07T18:17:48.959Z,-0.47
2023-03-07T18:20:34.922Z,-0.30
2023-03-07T18:23:21.272Z,-0.32
2023-03-07T18:26:14.793Z,-0.38
2023-03-07T18:28:59.947Z,-0.28
2023-03-07T18:31:46.037Z,-0.21
2023-03-07T18:34:31.091Z,-0.20
2023-03-07T18:37:16.357Z,-0.21
2023-03-07T18:40:02.081Z,-0.15
2023-03-07T18:42:47.595Z,-0.12
2023-03-07T18:45:33.014Z,-0.09
2023-03-07T18:48:20.818Z,-0.28
2023-03-07T18:51:15.601Z,-0.38
2023-03-07T18:54:02.207Z,-0.15
2023-03-07T18:56:47.791Z,-0.49
2023-03-07T18:59:33.204Z,-0.08
2023-03-07T19:02:20.686Z,-0.16
2023-03-07T19:05:06.720Z,-0.14
2023-03-07T19:07:51.882Z,-0.23
2023-03-07T19:10:37.686Z,-0.38
2023-03-07T19:13:23.379Z,-0.33
2023-03-07T19:16:09.662Z,-0.35
2023-03-07T19:18:55.907Z,-0.52
2023-03-07T19:21:41.456Z,-0.73
2023-03-07T19:24:26.828Z,-0.80
2023-03-07T19:27:12.105Z,-0.57
2023-03-07T19:29:57.420Z,-0.60
2023-03-07T19:32:42.874Z,-0.56
2023-03-07T19:35:28.393Z,-0.49
2023-03-07T19:38:14.818Z,-0.50
2023-03-07T19:41:02.365Z,-0.60
2023-03-07T19:43:47.562Z,-0.69
2023-03-07T19:46:34.552Z,-0.62
2023-03-07T19:49:19.894Z,-0.49
2023-03-07T19:52:05.931Z,-0.52
2023-03-07T19:54:52.641Z,-0.57
2023-03-07T19:57:38.065Z,-0.61
2023-03-07T20:00:23.684Z,-0.58
2023-03-07T20:03:13.057Z,-0.58
2023-03-07T20:06:01.497Z,-0.78
2023-03-07T20:08:48.545Z,-0.62
2023-03-07T20:11:36.034Z,-0.62
2023-03-07T20:14:21.928Z,-0.53
2023-03-07T20:17:07.598Z,-0.56
2023-03-07T20:19:52.925Z,-0.72
2023-03-07T20:22:38.671Z,-1.29
2023-03-07T20:25:28.839Z,-1.33
2023-03-07T20:28:14.470Z,-1.29
2023-03-07T20:31:00.552Z,-1.12
2023-03-07T20:33:47.157Z,-1.24
2023-03-07T20:36:34.116Z,-1.25
2023-03-07T20:39:20.763Z,-1.11
2023-03-07T20:42:06.572Z,-1.14
2023-03-07T20:44:52.453Z,-1.05
2023-03-07T20:47:37.808Z,-1.11
2023-03-07T20:50:23.257Z,-1.19
2023-03-07T20:53:09.190Z,-1.16
2023-03-07T20:55:54.511Z,-1.34
2023-03-07T20:58:40.218Z,-1.39
2023-03-07T21:01:28.558Z,-1.60
2023-03-07T21:04:14.933Z,-1.61
2023-03-07T21:07:00.209Z,-1.48
2023-03-07T21:09:45.435Z,-1.70
2023-03-07T21:12:30.666Z,-1.70
2023-03-07T21:15:16.358Z,-1.55
2023-03-07T21:18:01.810Z,-1.92
2023-03-07T21:20:47.378Z,-1.47
2023-03-07T21:23:33.855Z,-1.32
2023-03-07T21:26:21.624Z,-1.28
2023-03-07T21:29:07.664Z,-1.11
2023-03-07T21:31:53.658Z,-1.26
2023-03-07T21:34:39.464Z,-1.23
2023-03-07T21:37:27.199Z,-1.06
2023-03-07T21:40:14.192Z,-1.17
2023-03-07T21:42:59.764Z,-1.21
2023-03-07T21:45:45.269Z,-1.19
2023-03-07T21:48:31.877Z,-1.16
2023-03-07T21:51:17.975Z,-1.16
2023-03-07T21:54:03.490Z,-1.63
2023-03-07T21:56:48.620Z,-1.30
2023-03-07T21:59:37.246Z,-1.23
2023-03-07T22:02:23.055Z,-1.30
2023-03-07T22:05:08.747Z,-1.01
2023-03-07T22:07:53.988Z,-0.96
2023-03-07T22:10:39.525Z,-0.75
2023-03-07T22:13:25.221Z,-0.68
2023-03-07T22:16:18.928Z,-0.87
2023-03-07T22:19:04.474Z,-0.89
2023-03-07T22:21:49.822Z,-0.88
2023-03-07T22:24:35.334Z,-1.06
2023-03-07T22:27:20.883Z,-0.88
2023-03-07T22:30:07.456Z,-0.91
2023-03-07T22:32:52.941Z,-0.86
2023-03-07T22:35:38.328Z,-0.87
2023-03-07T22:38:23.700Z,-1.12
2023-03-07T22:41:17.068Z,-1.13
2023-03-07T22:44:02.644Z,-1.20
2023-03-07T22:46:49.989Z,-1.16
2023-03-07T22:49:35.531Z,-1.20
2023-03-07T22:52:20.827Z,-1.36
2023-03-07T22:55:06.108Z,-1.32
2023-03-07T22:57:51.476Z,-1.44
2023-03-07T23:00:37.276Z,-1.67
2023-03-07T23:03:22.973Z,-1.55
2023-03-07T23:06:08.137Z,-1.64
2023-03-07T23:08:53.803Z,-1.80
2023-03-07T23:11:39.080Z,-1.74
2023-03-07T23:14:24.634Z,-1.74
2023-03-07T23:17:09.834Z,-1.87
2023-03-07T23:19:55.303Z,-1.65
2023-03-07T23:22:40.968Z,-1.80
2023-03-07T23:25:26.651Z,-1.61
2023-03-07T23:28:11.942Z,-1.59
2023-03-07T23:30:57.770Z,-1.43
2023-03-07T23:33:43.051Z,-1.55
2023-03-07T23:36:30.243Z,-1.63
2023-03-07T23:39:15.828Z,-1.62
2023-03-07T23:42:01.129Z,-1.59
2023-03-07T23:44:49.609Z,-1.44
2023-03-07T23:47:35.154Z,-1.33
2023-03-07T23:50:20.667Z,-1.40
2023-03-07T23:53:06.189Z,-1.37
2023-03-07T23:55:51.684Z,-1.62
2023-03-07T23:58:38.177Z,-1.57
